createdAt,value
2023-04-16T00:00:24.221Z,96.75
2023-04-16T00:02:51.025Z,97.42
2023-04-16T00:05:17.778Z,97.50
2023-04-16T00:07:44.197Z,96.99
2023-04-16T00:10:10.894Z,96.65
2023-04-16T00:12:37.413Z,97.92
2023-04-16T00:15:04.094Z,97.51
2023-04-16T00:17:30.710Z,97.20
2023-04-16T00:19:57.236Z,97.17
2023-04-16T00:22:23.719Z,97.66
2023-04-16T00:24:51.044Z,98.48
2023-04-16T00:27:19.375Z,98.56
2023-04-16T00:29:45.932Z,98.04
2023-04-16T00:32:12.541Z,97.98
2023-04-16T00:34:38.959Z,97.75
2023-04-16T00:37:05.460Z,98.26
2023-04-16T00:39:31.930Z,98.10
2023-04-16T00:41:58.421Z,97.80
2023-04-16T00:44:24.850Z,98.35
2023-04-16T00:46:53.810Z,98.27
2023-04-16T00:49:20.876Z,98.11
2023-04-16T00:51:48.061Z,98.09
2023-04-16T00:54:14.627Z,98.96
2023-04-16T00:56:41.380Z,99.83
2023-04-16T00:59:08.956Z,99.11
2023-04-16T01:01:36.035Z,99.07
2023-04-16T01:04:03.020Z,99.60
2023-04-16T01:06:29.570Z,99.59
2023-04-16T01:08:56.008Z,100.00
2023-04-16T01:11:22.560Z,99.96
2023-04-16T01:13:49.174Z,99.33
2023-04-16T01:16:16.874Z,99.14
2023-04-16T01:18:43.456Z,98.90
2023-04-16T01:21:10.481Z,99.26
2023-04-16T01:23:37.012Z,99.65
2023-04-16T01:26:03.739Z,99.64
2023-04-16T01:28:30.326Z,99.67
2023-04-16T01:30:56.930Z,99.75
2023-04-16T01:33:43.811Z,99.53
2023-04-16T01:36:11.957Z,100.00
2023-04-16T01:38:38.485Z,99.93
2023-04-16T01:41:04.904Z,99.40
2023-04-16T01:43:31.416Z,99.85
2023-04-16T01:46:17.214Z,99.98
2023-04-16T01:48:44.710Z,100.00
2023-04-16T01:51:11.404Z,100.00
2023-04-16T01:53:38.302Z,100.00
2023-04-16T01:56:05.958Z,100.00
2023-04-16T01:58:33.811Z,100.00
2023-04-16T02:01:02.016Z,100.00
2023-04-16T02:03:29.399Z,100.00
2023-04-16T02:05:56.078Z,100.00
2023-04-16T02:08:22.858Z,100.00
2023-04-16T02:10:50.231Z,100.00
2023-04-16T02:13:16.889Z,100.00
2023-04-16T02:15:50.788Z,100.00
2023-04-16T02:18:24.442Z,100.00
2023-04-16T02:20:51.304Z,100.00
2023-04-16T02:23:20.320Z,100.00
2023-04-16T02:25:47.739Z,100.00
2023-04-16T02:28:16.984Z,100.00
2023-04-16T02:30:45.609Z,100.00
2023-04-16T02:33:14.054Z,100.00
2023-04-16T02:35:50.751Z,100.00
2023-04-16T02:38:17.219Z,100.00
2023-04-16T02:40:43.867Z,100.00
2023-04-16T02:43:10.840Z,100.00
2023-04-16T02:45:37.295Z,100.00
2023-04-16T02:48:04.066Z,100.00
2023-04-16T02:50:30.734Z,100.00
2023-04-16T02:52:57.205Z,100.00
2023-04-16T02:55:23.594Z,100.00
2023-04-16T02:57:50.025Z,100.00
2023-04-16T03:00:16.545Z,100.00
2023-04-16T03:02:43.266Z,100.00
2023-04-16T03:05:10.022Z,100.00
2023-04-16T03:07:36.541Z,100.00
2023-04-16T03:10:02.985Z,100.00
2023-04-16T03:12:29.485Z,100.00
2023-04-16T03:14:55.944Z,100.00
2023-04-16T03:17:22.398Z,100.00
2023-04-16T03:19:50.730Z,100.00
2023-04-16T03:22:19.317Z,100.00
2023-04-16T03:24:46.219Z,100.00
2023-04-16T03:27:13.165Z,100.00
2023-04-16T03:29:39.876Z,100.00
2023-04-16T03:32:07.688Z,100.00
2023-04-16T03:34:34.103Z,100.00
2023-04-16T03:37:00.692Z,100.00
2023-04-16T03:39:27.247Z,100.00
2023-04-16T03:41:53.667Z,100.00
2023-04-16T03:44:20.734Z,100.00
2023-04-16T03:46:47.373Z,100.00
2023-04-16T03:49:14.121Z,100.00
2023-04-16T03:51:40.906Z,100.00
2023-04-16T03:54:07.390Z,100.00
2023-04-16T03:56:34.130Z,100.00
2023-04-16T03:59:00.538Z,100.00
2023-04-16T04:01:27.207Z,100.00
2023-04-16T04:03:53.917Z,100.00
2023-04-16T04:06:20.716Z,100.00
2023-04-16T04:08:47.923Z,100.00
2023-04-16T04:11:14.838Z,100.00
2023-04-16T04:13:43.077Z,100.00
2023-04-16T04:16:09.517Z,100.00
2023-04-16T04:18:36.052Z,100.00
2023-04-16T04:21:08.142Z,100.00
2023-04-16T04:23:35.781Z,100.00
2023-04-16T04:26:04.036Z,100.00
2023-04-16T04:28:32.071Z,100.00
2023-04-16T04:31:00.059Z,100.00
2023-04-16T04:33:28.699Z,100.00
2023-04-16T04:35:55.761Z,100.00
2023-04-16T04:38:25.201Z,100.00
2023-04-16T04:40:52.965Z,100.00
2023-04-16T04:43:20.998Z,100.00
2023-04-16T04:45:49.078Z,100.00
2023-04-16T04:48:16.470Z,100.00
2023-04-16T04:50:45.086Z,100.00
2023-04-16T04:53:11.965Z,100.00
2023-04-16T04:55:39.462Z,100.00
2023-04-16T04:58:06.327Z,100.00
2023-04-16T05:00:34.107Z,100.00
2023-04-16T05:03:03.111Z,100.00
2023-04-16T05:05:29.582Z,99.89
2023-04-16T05:07:55.928Z,100.00
2023-04-16T05:10:22.472Z,100.00
2023-04-16T05:12:49.162Z,100.00
2023-04-16T05:15:15.858Z,100.00
2023-04-16T05:17:42.310Z,100.00
2023-04-16T05:20:12.001Z,100.00
2023-04-16T05:22:38.472Z,100.00
2023-04-16T05:25:05.345Z,100.00
2023-04-16T05:27:31.801Z,100.00
2023-04-16T05:29:58.168Z,100.00
2023-04-16T05:32:27.891Z,100.00
2023-04-16T05:34:54.520Z,100.00
2023-04-16T05:37:20.933Z,100.00
2023-04-16T05:39:47.755Z,100.00
2023-04-16T05:42:14.199Z,100.00
2023-04-16T05:44:40.747Z,99.51
2023-04-16T05:47:09.314Z,99.70
2023-04-16T05:49:39.395Z,99.58
2023-04-16T05:52:06.198Z,100.00
2023-04-16T05:54:32.719Z,100.00
2023-04-16T05:57:01.021Z,100.00
2023-04-16T05:59:27.700Z,100.00
2023-04-16T06:01:54.280Z,100.00
2023-04-16T06:04:20.798Z,100.00
2023-04-16T06:06:47.408Z,100.00
2023-04-16T06:09:13.761Z,100.00
2023-04-16T06:11:40.298Z,100.00
2023-04-16T06:14:06.777Z,100.00
2023-04-16T06:16:33.376Z,100.00
2023-04-16T06:19:00.347Z,100.00
2023-04-16T06:21:27.116Z,100.00
2023-04-16T06:23:55.071Z,100.00
2023-04-16T06:26:21.630Z,100.00
2023-04-16T06:28:48.295Z,100.00
2023-04-16T06:31:14.820Z,100.00
2023-04-16T06:33:41.424Z,100.00
2023-04-16T06:36:07.898Z,100.00
2023-04-16T06:38:36.270Z,100.00
2023-04-16T06:41:03.270Z,100.00
2023-04-16T06:43:30.246Z,100.00
2023-04-16T06:45:56.649Z,100.00
2023-04-16T06:48:23.054Z,100.00
2023-04-16T06:50:49.480Z,99.88
2023-04-16T06:53:15.928Z,99.03
2023-04-16T06:55:42.380Z,98.09
2023-04-16T06:58:08.738Z,97.84
2023-04-16T07:00:35.249Z,97.28
2023-04-16T07:03:01.970Z,97.38
2023-04-16T07:05:28.733Z,97.30
2023-04-16T07:07:57.462Z,96.29
2023-04-16T07:10:23.931Z,94.43
2023-04-16T07:12:50.310Z,93.02
2023-04-16T07:15:16.981Z,94.38
2023-04-16T07:17:43.529Z,93.93
2023-04-16T07:20:10.210Z,96.40
2023-04-16T07:22:36.655Z,95.08
2023-04-16T07:25:03.141Z,93.08
2023-04-16T07:27:29.583Z,93.77
2023-04-16T07:29:56.062Z,94.61
2023-04-16T07:32:22.810Z,93.27
2023-04-16T07:34:49.335Z,93.89
2023-04-16T07:37:15.942Z,94.11
2023-04-16T07:39:42.412Z,92.29
2023-04-16T07:42:08.934Z,90.75
2023-04-16T07:44:35.785Z,91.11
2023-04-16T07:47:04.193Z,90.24
2023-04-16T07:49:31.987Z,88.34
2023-04-16T07:51:58.408Z,87.76
2023-04-16T07:54:24.958Z,86.94
2023-04-16T07:56:52.024Z,87.90
2023-04-16T07:59:23.579Z,85.79
2023-04-16T08:01:53.089Z,84.53
2023-04-16T08:04:24.587Z,85.40
2023-04-16T08:06:51.883Z,85.79
2023-04-16T08:09:20.686Z,83.65
2023-04-16T08:11:49.173Z,84.00
2023-04-16T08:14:18.560Z,85.91
2023-04-16T08:16:45.032Z,83.62
2023-04-16T08:19:11.523Z,83.97
2023-04-16T08:21:38.200Z,85.04
2023-04-16T08:24:04.665Z,86.86
2023-04-16T08:26:31.161Z,87.72
2023-04-16T08:28:57.573Z,85.97
2023-04-16T08:31:24.193Z,87.05
2023-04-16T08:33:50.727Z,85.83
2023-04-16T08:36:17.089Z,82.81
2023-04-16T08:38:43.548Z,83.86
2023-04-16T08:41:12.256Z,82.87
2023-04-16T08:43:42.153Z,84.19
2023-04-16T08:46:09.082Z,82.24
2023-04-16T08:48:37.042Z,83.04
2023-04-16T08:51:04.065Z,79.87
2023-04-16T08:53:42.599Z,80.88
2023-04-16T08:56:11.307Z,79.47
2023-04-16T08:58:39.582Z,80.14
2023-04-16T09:01:07.063Z,76.84
2023-04-16T09:03:36.451Z,76.30
2023-04-16T09:06:04.467Z,76.62
2023-04-16T09:08:32.265Z,75.90
2023-04-16T09:10:59.573Z,78.43
2023-04-16T09:13:26.672Z,77.89
2023-04-16T09:15:54.101Z,78.28
2023-04-16T09:18:21.335Z,77.68
2023-04-16T09:20:49.478Z,76.03
2023-04-16T09:23:16.063Z,79.24
2023-04-16T09:25:42.629Z,77.42
2023-04-16T09:28:12.023Z,77.16
2023-04-16T09:30:38.539Z,75.04
2023-04-16T09:33:13.993Z,75.54
2023-04-16T09:35:48.372Z,75.49
2023-04-16T09:38:15.556Z,76.13
2023-04-16T09:40:42.065Z,74.80
2023-04-16T09:43:15.035Z,75.67
2023-04-16T09:45:56.667Z,75.76
2023-04-16T09:48:31.581Z,74.98
2023-04-16T09:50:59.366Z,72.98
2023-04-16T09:53:30.652Z,75.50
2023-04-16T09:56:01.935Z,72.97
2023-04-16T09:58:29.122Z,73.28
2023-04-16T10:00:57.376Z,74.11
2023-04-16T10:03:34.834Z,73.27
2023-04-16T10:06:15.819Z,72.06
2023-04-16T10:08:50.274Z,71.13
2023-04-16T10:11:18.528Z,70.95
2023-04-16T10:13:45.162Z,70.04
2023-04-16T10:16:12.200Z,71.86
2023-04-16T10:18:43.813Z,71.45
2023-04-16T10:21:13.161Z,69.22
2023-04-16T10:23:40.685Z,69.54
2023-04-16T10:26:07.501Z,70.48
2023-04-16T10:28:35.624Z,69.71
2023-04-16T10:31:04.198Z,69.78
2023-04-16T10:33:33.315Z,70.17
2023-04-16T10:36:22.613Z,69.24
2023-04-16T10:38:56.691Z,67.79
2023-04-16T10:41:23.330Z,68.66
2023-04-16T10:43:51.082Z,68.81
2023-04-16T10:46:22.830Z,69.80
2023-04-16T10:48:52.546Z,66.53
2023-04-16T10:51:33.832Z,65.64
2023-04-16T10:54:04.478Z,67.02
2023-04-16T10:56:35.441Z,65.46
2023-04-16T10:59:06.387Z,66.69
2023-04-16T11:01:35.413Z,68.44
2023-04-16T11:04:21.033Z,67.94
2023-04-16T11:07:03.408Z,67.08
2023-04-16T11:09:52.032Z,68.17
2023-04-16T11:12:27.773Z,68.51
2023-04-16T11:14:58.685Z,66.72
2023-04-16T11:17:29.780Z,68.48
2023-04-16T11:19:56.481Z,67.51
2023-04-16T11:22:23.396Z,67.08
2023-04-16T11:24:57.410Z,67.75
2023-04-16T11:27:24.585Z,66.24
2023-04-16T11:30:02.029Z,66.69
2023-04-16T11:32:31.877Z,66.65
2023-04-16T11:34:59.834Z,67.17
2023-04-16T11:37:34.229Z,67.74
2023-04-16T11:40:01.579Z,69.11
2023-04-16T11:42:28.611Z,67.71
2023-04-16T11:44:56.740Z,68.52
2023-04-16T11:47:24.409Z,66.66
2023-04-16T11:49:51.458Z,67.86
2023-04-16T11:52:31.654Z,66.44
2023-04-16T11:54:59.607Z,68.35
2023-04-16T11:57:29.751Z,69.37
2023-04-16T12:00:01.742Z,69.50
2023-04-16T12:02:44.269Z,69.37
2023-04-16T12:05:28.724Z,69.23
2023-04-16T12:07:55.545Z,68.15
2023-04-16T12:10:22.394Z,67.78
2023-04-16T12:12:48.968Z,68.03
2023-04-16T12:15:15.709Z,67.07
2023-04-16T12:17:42.363Z,66.28
2023-04-16T12:20:11.554Z,68.02
2023-04-16T12:22:40.310Z,68.46
2023-04-16T12:25:15.458Z,67.66
2023-04-16T12:27:46.823Z,66.56
2023-04-16T12:30:15.369Z,65.80
2023-04-16T12:32:43.430Z,66.49
2023-04-16T12:35:13.439Z,66.05
2023-04-16T12:37:40.856Z,65.38
2023-04-16T12:40:08.575Z,65.93
2023-04-16T12:42:36.099Z,65.44
2023-04-16T12:45:06.901Z,65.18
2023-04-16T12:47:33.579Z,62.92
2023-04-16T12:49:59.990Z,63.07
2023-04-16T12:52:27.487Z,64.79
2023-04-16T12:54:54.061Z,64.61
2023-04-16T12:57:20.460Z,65.25
2023-04-16T12:59:47.182Z,65.50
2023-04-16T13:02:13.736Z,65.69
2023-04-16T13:04:40.488Z,65.72
2023-04-16T13:07:07.965Z,65.32
2023-04-16T13:09:34.451Z,64.57
2023-04-16T13:12:00.817Z,63.91
2023-04-16T13:14:27.316Z,64.65
2023-04-16T13:16:53.750Z,63.55
2023-04-16T13:19:21.141Z,65.07
2023-04-16T13:21:47.650Z,64.56
2023-04-16T13:24:14.162Z,64.76
2023-04-16T13:26:40.637Z,65.00
2023-04-16T13:29:07.042Z,66.06
2023-04-16T13:31:33.652Z,64.25
2023-04-16T13:34:00.231Z,65.83
2023-04-16T13:36:27.799Z,65.66
2023-04-16T13:38:54.550Z,65.98
2023-04-16T13:41:21.165Z,67.10
2023-04-16T13:43:47.579Z,67.76
2023-04-16T13:46:14.099Z,68.12
2023-04-16T13:48:40.750Z,66.56
2023-04-16T13:51:08.379Z,66.29
2023-04-16T13:53:35.028Z,66.92
2023-04-16T13:56:03.690Z,66.88
2023-04-16T13:58:30.384Z,67.73
2023-04-16T14:00:56.961Z,68.63
2023-04-16T14:03:24.972Z,68.54
2023-04-16T14:05:51.548Z,68.94
2023-04-16T14:08:18.092Z,68.27
2023-04-16T14:10:44.579Z,67.34
2023-04-16T14:13:12.327Z,66.37
2023-04-16T14:15:38.816Z,66.04
2023-04-16T14:18:05.479Z,66.19
2023-04-16T14:20:32.038Z,65.68
2023-04-16T14:22:58.546Z,64.51
2023-04-16T14:25:25.022Z,65.46
2023-04-16T14:27:51.580Z,65.86
2023-04-16T14:30:18.118Z,65.50
2023-04-16T14:32:44.522Z,66.44
2023-04-16T14:35:11.233Z,65.97
2023-04-16T14:37:38.869Z,64.60
2023-04-16T14:40:08.685Z,64.58
2023-04-16T14:42:39.171Z,62.72
2023-04-16T14:45:06.735Z,62.00
2023-04-16T14:47:37.836Z,61.28
2023-04-16T14:50:05.457Z,62.66
2023-04-16T14:52:32.594Z,62.74
2023-04-16T14:54:59.114Z,61.97
2023-04-16T14:57:25.522Z,63.54
2023-04-16T14:59:51.978Z,63.19
2023-04-16T15:02:18.619Z,62.28
2023-04-16T15:04:45.757Z,62.52
2023-04-16T15:07:12.233Z,63.61
2023-04-16T15:09:38.886Z,63.69
2023-04-16T15:12:05.590Z,63.31
2023-04-16T15:14:32.054Z,64.64
2023-04-16T15:16:58.564Z,63.91
2023-04-16T15:19:25.443Z,65.13
2023-04-16T15:21:51.942Z,66.51
2023-04-16T15:24:18.458Z,66.38
2023-04-16T15:26:45.513Z,64.75
2023-04-16T15:29:11.968Z,65.34
2023-04-16T15:31:38.392Z,66.99
2023-04-16T15:34:04.860Z,67.06
2023-04-16T15:36:31.758Z,67.43
2023-04-16T15:38:58.197Z,66.84
2023-04-16T15:41:24.898Z,66.97
2023-04-16T15:43:51.337Z,67.87
2023-04-16T15:46:17.888Z,68.79
2023-04-16T15:48:44.323Z,70.06
2023-04-16T15:51:11.163Z,69.53
2023-04-16T15:53:37.725Z,68.44
2023-04-16T15:56:04.161Z,68.60
2023-04-16T15:58:30.766Z,68.83
2023-04-16T16:00:57.860Z,69.19
2023-04-16T16:03:24.550Z,70.63
2023-04-16T16:05:51.102Z,70.91
2023-04-16T16:08:17.567Z,71.65
2023-04-16T16:10:44.123Z,72.89
2023-04-16T16:13:13.208Z,71.03
2023-04-16T16:15:42.549Z,71.73
2023-04-16T16:18:09.194Z,71.88
2023-04-16T16:20:36.664Z,70.78
2023-04-16T16:23:03.540Z,70.89
2023-04-16T16:25:30.300Z,71.85
2023-04-16T16:27:56.761Z,70.48
2023-04-16T16:30:23.230Z,71.33
2023-04-16T16:32:50.733Z,71.24
2023-04-16T16:35:17.248Z,71.75
2023-04-16T16:37:43.718Z,71.84
2023-04-16T16:40:11.051Z,71.75
2023-04-16T16:42:37.565Z,72.92
2023-04-16T16:45:05.951Z,75.09
2023-04-16T16:47:32.908Z,74.33
2023-04-16T16:50:01.365Z,73.19
2023-04-16T16:52:29.274Z,73.13
2023-04-16T16:54:56.831Z,73.50
2023-04-16T16:57:26.994Z,72.51
2023-04-16T16:59:54.506Z,72.84
2023-04-16T17:02:21.394Z,73.01
2023-04-16T17:04:47.911Z,73.01
2023-04-16T17:07:14.599Z,73.34
2023-04-16T17:09:41.285Z,73.69
2023-04-16T17:12:08.044Z,74.38
2023-04-16T17:14:35.257Z,75.25
2023-04-16T17:17:01.961Z,73.76
2023-04-16T17:19:28.617Z,75.18
2023-04-16T17:21:55.242Z,75.06
2023-04-16T17:24:21.738Z,75.41
2023-04-16T17:26:48.109Z,76.13
2023-04-16T17:29:14.576Z,76.13
2023-04-16T17:31:41.039Z,76.68
2023-04-16T17:34:07.584Z,76.90
2023-04-16T17:36:34.053Z,76.82
2023-04-16T17:39:00.697Z,77.67
2023-04-16T17:41:27.894Z,78.00
2023-04-16T17:43:54.293Z,78.12
2023-04-16T17:46:20.864Z,78.65
2023-04-16T17:48:48.770Z,79.20
2023-04-16T17:51:16.424Z,79.33
2023-04-16T17:53:43.481Z,80.08
2023-04-16T17:56:10.788Z,80.23
2023-04-16T17:58:37.261Z,80.76
2023-04-16T18:01:03.900Z,81.02
2023-04-16T18:03:32.396Z,81.27
2023-04-16T18:05:59.557Z,81.62
2023-04-16T18:08:26.646Z,82.35
2023-04-16T18:10:54.976Z,82.87
2023-04-16T18:13:21.532Z,83.22
2023-04-16T18:15:48.115Z,83.40
2023-04-16T18:18:14.704Z,83.82
2023-04-16T18:20:41.231Z,84.50
2023-04-16T18:23:07.746Z,84.60
2023-04-16T18:25:35.166Z,84.60
2023-04-16T18:28:03.756Z,85.51
2023-04-16T18:30:30.649Z,85.67
2023-04-16T18:33:19.426Z,86.15
2023-04-16T18:35:43.661Z,86.27
2023-04-16T18:38:10.257Z,86.88
2023-04-16T18:40:37.222Z,86.62
2023-04-16T18:43:04.111Z,86.55
2023-04-16T18:45:30.849Z,87.17
2023-04-16T18:48:02.813Z,87.25
2023-04-16T18:50:29.481Z,87.68
2023-04-16T18:52:55.881Z,87.73
2023-04-16T18:55:22.399Z,87.92
2023-04-16T18:57:48.823Z,87.78
2023-04-16T19:00:15.524Z,87.97
2023-04-16T19:02:42.517Z,87.74
2023-04-16T19:05:09.669Z,88.32
2023-04-16T19:07:37.502Z,88.97
2023-04-16T19:10:05.302Z,88.66
2023-04-16T19:12:32.483Z,88.59
2023-04-16T19:14:59.123Z,88.17
2023-04-16T19:17:25.650Z,88.05
2023-04-16T19:19:52.559Z,88.53
2023-04-16T19:22:18.964Z,88.07
2023-04-16T19:24:45.557Z,89.09
2023-04-16T19:27:12.035Z,90.28
2023-04-16T19:29:40.388Z,91.80
2023-04-16T19:32:06.928Z,91.42
2023-04-16T19:34:33.451Z,91.78
2023-04-16T19:36:59.929Z,92.30
2023-04-16T19:39:27.639Z,91.99
2023-04-16T19:41:54.080Z,90.58
2023-04-16T19:44:22.408Z,90.55
2023-04-16T19:46:48.876Z,92.54
2023-04-16T19:49:15.378Z,92.20
2023-04-16T19:51:41.793Z,93.20
2023-04-16T19:54:08.928Z,91.87
2023-04-16T19:56:35.784Z,91.04
2023-04-16T19:59:02.546Z,91.47
2023-04-16T20:01:30.778Z,91.52
2023-04-16T20:03:57.453Z,90.94
2023-04-16T20:06:24.203Z,92.71
2023-04-16T20:08:50.704Z,92.85
2023-04-16T20:11:17.654Z,93.47
2023-04-16T20:13:48.007Z,92.94
2023-04-16T20:16:14.800Z,92.50
2023-04-16T20:18:41.568Z,91.67
2023-04-16T20:21:09.160Z,91.86
2023-04-16T20:23:35.713Z,93.05
2023-04-16T20:26:02.197Z,94.21
2023-04-16T20:28:28.720Z,94.06
2023-04-16T20:30:55.158Z,93.20
2023-04-16T20:33:21.643Z,93.11
2023-04-16T20:35:49.072Z,94.54
2023-04-16T20:38:15.516Z,94.33
2023-04-16T20:40:44.610Z,94.27
2023-04-16T20:43:14.113Z,94.22
2023-04-16T20:45:40.955Z,94.50
2023-04-16T20:48:07.774Z,94.72
2023-04-16T20:50:34.422Z,94.47
2023-04-16T20:53:00.818Z,93.96
2023-04-16T20:55:27.360Z,93.60
2023-04-16T20:57:53.704Z,92.47
2023-04-16T21:00:20.450Z,92.90
2023-04-16T21:02:46.993Z,93.03
2023-04-16T21:05:16.369Z,94.41
2023-04-16T21:07:43.117Z,93.54
2023-04-16T21:10:10.468Z,95.82
2023-04-16T21:12:37.266Z,96.36
2023-04-16T21:15:04.261Z,95.16
2023-04-16T21:17:30.960Z,95.73
2023-04-16T21:19:57.586Z,95.87
2023-04-16T21:22:24.241Z,95.62
2023-04-16T21:24:50.767Z,97.74
2023-04-16T21:27:17.182Z,97.61
2023-04-16T21:29:43.617Z,98.28
2023-04-16T21:32:10.003Z,96.66
2023-04-16T21:34:36.476Z,97.54
2023-04-16T21:37:03.695Z,99.00
2023-04-16T21:39:30.919Z,96.87
2023-04-16T21:41:57.992Z,97.63
2023-04-16T21:44:24.462Z,97.89
2023-04-16T21:46:51.252Z,99.60
2023-04-16T21:49:17.813Z,96.94
2023-04-16T21:51:46.003Z,97.32
2023-04-16T21:54:13.004Z,100.00
2023-04-16T21:56:39.479Z,99.79
2023-04-16T21:59:05.876Z,100.00
2023-04-16T22:17:31.594Z,100.00
2023-04-16T22:20:00.391Z,100.00
2023-04-16T22:22:26.943Z,100.00
2023-04-16T22:24:53.993Z,100.00
2023-04-16T22:27:20.477Z,100.00
2023-04-16T22:29:47.314Z,100.00
2023-04-16T22:32:13.830Z,100.00
2023-04-16T22:34:40.253Z,100.00
2023-04-16T22:37:08.040Z,100.00
2023-04-16T22:39:34.779Z,100.00
2023-04-16T22:42:02.451Z,100.00
2023-04-16T22:44:29.009Z,100.00
2023-04-16T22:46:55.411Z,99.84
2023-04-16T22:49:21.928Z,99.49
2023-04-16T22:51:48.345Z,98.94
2023-04-16T22:54:14.973Z,99.75
2023-04-16T22:56:41.484Z,100.00
2023-04-16T22:59:07.918Z,100.00
2023-04-16T23:01:35.088Z,99.28
2023-04-16T23:04:01.739Z,99.33
2023-04-16T23:06:28.270Z,99.39
2023-04-16T23:08:54.655Z,99.26
2023-04-16T23:11:21.229Z,98.82
2023-04-16T23:13:47.659Z,98.48
2023-04-16T23:16:14.241Z,98.56
2023-04-16T23:18:40.750Z,98.54
2023-04-16T23:21:07.144Z,98.71
2023-04-16T23:23:33.636Z,99.09
2023-04-16T23:26:02.461Z,97.74
2023-04-16T23:28:28.977Z,98.05
2023-04-16T23:30:55.644Z,98.34
2023-04-16T23:33:22.467Z,98.16
2023-04-16T23:35:49.098Z,97.71
2023-04-16T23:38:15.783Z,98.36
2023-04-16T23:40:42.372Z,98.94
2023-04-16T23:43:08.769Z,98.97
2023-04-16T23:45:35.339Z,98.58
2023-04-16T23:48:01.925Z,99.33
2023-04-16T23:50:28.563Z,99.85
2023-04-16T23:52:55.039Z,99.41
2023-04-16T23:55:21.709Z,99.54
2023-04-16T23:57:48.227Z,98.83
